Teec Nos Pos, Arizona
Current Conditions -  °F | °C
As of 1:53 PM on Thursday 23 Oct 2014 (Local Time) from KCEZ Reporting Station
Clear Clear  
Wind Chill: 69°   Ceiling: Unl
Heat Index: 69°   Visibility: 10mi
Dew Point: 35°   Wind: 0mph
Humidity: 29%   Direction: NA
Pressure: 30.27"   Gusts: NA
Location:  36.91°N, 109.1°W
Report Text: KCEZ 231953Z AUTO 00000KT 10SM CLR 21/02 A3027 RMK AO2 SLP202 T02060017
Loading
Personal Weather Stations






























Interactive Weather Map
Tropical Storm Tracking
New forecast layout! Learn more

10-Day Weather Forecast

Advertisements
Track Severe Weather on mobile